Time;durP1;ratioP1;P1;durP2;ratioP2;P2;SDS_P1;SDS_P2;PMS_P1;PMS_P2;Temp;Humidity;BMP_temperature;BMP_pressure;BME280_temperature;BME280_humidity;BME280_pressure;Samples;Min_cycle;Max_cycle;Signal;HPM_P1;HPM_P2
2021/12/15 00:01:37;;;;;;;24.63;18.10;;;8.10;99.90;;;;;;6272302;22;20542;-49
2021/12/15 00:04:04;;;;;;;29.23;18.42;;;8.10;99.90;;;;;;6282625;22;20198;-49
2021/12/15 00:06:30;;;;;;;26.15;18.33;;;8.10;99.90;;;;;;6281995;22;20504;-49
2021/12/15 00:08:58;;;;;;;25.77;17.42;;;8.30;99.90;;;;;;6281205;22;20148;-49
2021/12/15 00:11:32;;;;;;;25.35;17.60;;;7.90;99.90;;;;;;6280307;22;20595;-49
2021/12/15 00:13:59;;;;;;;26.13;18.25;;;8.00;99.90;;;;;;6272110;22;20635;-49
2021/12/15 00:16:26;;;;;;;28.10;18.40;;;7.80;99.90;;;;;;6282560;22;20178;-49
2021/12/15 00:18:52;;;;;;;25.50;17.65;;;8.20;99.90;;;;;;6282630;22;20563;-49
2021/12/15 00:21:20;;;;;;;25.93;18.00;;;7.90;99.90;;;;;;6282890;22;20202;-49
2021/12/15 00:23:48;;;;;;;25.00;17.45;;;8.10;99.90;;;;;;6272305;22;20418;-49
2021/12/15 00:26:15;;;;;;;25.10;17.33;;;8.10;99.90;;;;;;6272372;22;20161;-49
2021/12/15 00:28:42;;;;;;;28.00;17.73;;;8.10;99.90;;;;;;6281691;22;20172;-49
2021/12/15 00:31:09;;;;;;;28.27;18.63;;;8.30;99.90;;;;;;6271250;22;20504;-49
2021/12/15 00:33:36;;;;;;;27.67;16.73;;;8.20;99.90;;;;;;6280615;22;20165;-49
2021/12/15 00:36:03;;;;;;;26.55;16.30;;;8.30;99.90;;;;;;6272426;22;20499;-49
2021/12/15 00:38:29;;;;;;;21.13;13.80;;;8.40;99.90;;;;;;6282073;22;20187;-49
2021/12/15 00:40:55;;;;;;;23.27;15.27;;;8.40;99.90;;;;;;6282154;22;20149;-49
2021/12/15 00:43:21;;;;;;;27.15;16.33;;;8.30;99.90;;;;;;6272353;22;20175;-49
2021/12/15 00:45:47;;;;;;;25.23;15.95;;;8.10;99.90;;;;;;6271645;22;20156;-49
2021/12/15 00:48:14;;;;;;;23.85;16.40;;;8.10;99.90;;;;;;6269026;22;20243;-49
2021/12/15 00:50:42;;;;;;;23.90;16.58;;;8.10;99.90;;;;;;6269920;22;20503;-50
2021/12/15 00:53:08;;;;;;;22.85;16.67;;;8.20;99.90;;;;;;6281757;22;20165;-49
2021/12/15 00:55:34;;;;;;;27.63;18.77;;;8.00;99.90;;;;;;6271960;22;20174;-49
2021/12/15 00:58:01;;;;;;;22.45;15.55;;;8.00;99.90;;;;;;6282706;22;20721;-49
2021/12/15 01:00:40;;;;;;;24.75;16.88;;;8.20;99.90;;;;;;6271973;22;20371;-49
2021/12/15 01:03:07;;;;;;;25.25;16.88;;;7.90;99.90;;;;;;6284096;22;20534;-49
2021/12/15 01:05:39;;;;;;;20.70;14.25;;;8.40;99.90;;;;;;6273835;22;20564;-49
2021/12/15 01:08:13;;;;;;;20.23;14.50;;;8.20;99.90;;;;;;6283216;22;20172;-49
2021/12/15 01:11:13;;;;;;;21.10;13.98;;;8.30;99.90;;;;;;6272770;22;20219;-50
2021/12/15 01:21:46;;;;;;;17.52;13.10;;;8.00;99.90;;;;;;6274527;22;20212;-49
2021/12/15 01:24:13;;;;;;;17.25;12.82;;;8.00;99.90;;;;;;6283964;22;20191;-49
2021/12/15 01:26:39;;;;;;;17.85;13.68;;;8.10;99.90;;;;;;6283451;22;20531;-49
2021/12/15 01:29:05;;;;;;;19.97;13.87;;;7.90;99.90;;;;;;6283172;22;20152;-49
2021/12/15 01:31:31;;;;;;;24.83;17.50;;;7.90;99.90;;;;;;6282664;22;20390;-50
2021/12/15 01:33:56;;;;;;;22.90;15.60;;;8.10;99.90;;;;;;6283978;22;20410;-50
2021/12/15 01:36:22;;;;;;;21.20;15.90;;;8.00;99.90;;;;;;6284711;22;20391;-49
2021/12/15 01:38:49;;;;;;;21.00;15.50;;;7.90;99.90;;;;;;6283849;22;20422;-50
2021/12/15 01:41:22;;;;;;;19.52;14.43;;;8.10;99.90;;;;;;6284622;22;20149;-50
2021/12/15 01:46:55;;;;;;;20.50;15.20;;;8.20;99.90;;;;;;6283409;22;20171;-50
2021/12/15 01:49:29;;;;;;;23.20;14.48;;;8.10;99.90;;;;;;6272684;22;20152;-50
2021/12/15 01:52:00;;;;;;;19.27;14.40;;;8.10;99.90;;;;;;6273193;22;20175;-50
2021/12/15 01:54:27;;;;;;;22.23;14.25;;;8.00;99.90;;;;;;6284338;22;20227;-50
2021/12/15 01:56:53;;;;;;;23.85;16.30;;;8.00;99.90;;;;;;6283924;22;20164;-50
2021/12/15 01:59:22;;;;;;;22.97;15.13;;;7.80;99.90;;;;;;6284293;22;20259;-50
2021/12/15 02:01:48;;;;;;;20.77;14.40;;;8.10;99.90;;;;;;6284304;22;20149;-50
2021/12/15 02:04:16;;;;;;;22.85;15.60;;;8.20;99.90;;;;;;6273670;22;20173;-50
2021/12/15 02:06:44;;;;;;;21.23;15.77;;;8.00;99.90;;;;;;6273250;22;20184;-50
2021/12/15 02:09:14;;;;;;;22.23;15.15;;;8.10;99.90;;;;;;6282740;22;20175;-49
2021/12/15 02:11:40;;;;;;;25.02;16.25;;;8.00;99.90;;;;;;6271594;22;20163;-49
2021/12/15 02:14:06;;;;;;;21.50;15.63;;;8.20;99.90;;;;;;6273449;22;20184;-49
2021/12/15 02:16:31;;;;;;;21.33;14.70;;;7.90;99.90;;;;;;6273895;22;20707;-49
2021/12/15 02:18:57;;;;;;;21.00;14.77;;;8.20;99.90;;;;;;6283696;22;20501;-49
2021/12/15 02:21:25;;;;;;;23.33;14.87;;;8.30;99.90;;;;;;6280881;22;20449;-50
2021/12/15 02:23:56;;;;;;;21.17;14.57;;;7.80;99.90;;;;;;6273512;22;20177;-50
2021/12/15 02:26:26;;;;;;;22.77;14.90;;;7.80;99.90;;;;;;6283136;22;20125;-50
2021/12/15 02:28:57;;;;;;;21.88;14.27;;;8.30;99.90;;;;;;6281959;22;20199;-49
2021/12/15 02:39:19;;;;;;;22.55;13.05;;;8.30;99.90;;;;;;6273114;22;20218;-49
2021/12/15 02:41:46;;;;;;;19.35;12.85;;;8.30;99.90;;;;;;6271571;22;20221;-51
2021/12/15 02:44:19;;;;;;;21.90;13.90;;;8.50;99.90;;;;;;6283391;22;20172;-50
2021/12/15 02:46:47;;;;;;;20.85;13.75;;;8.40;99.90;;;;;;6272564;22;20159;-50
2021/12/15 02:49:16;;;;;;;23.15;13.70;;;8.40;99.90;;;;;;6282957;22;20207;-50
2021/12/15 02:51:44;;;;;;;20.60;12.82;;;8.40;99.90;;;;;;6281025;22;20231;-50
2021/12/15 02:54:12;;;;;;;20.30;14.35;;;8.60;99.90;;;;;;6283913;22;20528;-50
2021/12/15 02:56:39;;;;;;;20.27;13.90;;;8.40;99.90;;;;;;6283023;22;20594;-50
2021/12/15 02:59:07;;;;;;;17.92;13.40;;;8.30;99.90;;;;;;6283487;22;20172;-50
2021/12/15 03:07:49;;;;;;;17.90;12.52;;;8.20;99.90;;;;;;6283320;22;20713;-50
2021/12/15 03:15:23;;;;;;;15.90;11.10;;;8.10;99.90;;;;;;6272677;22;20231;-50
2021/12/15 03:18:09;;;;;;;10.00;8.90;;;8.30;99.90;;;;;;6283139;22;20194;-49
2021/12/15 03:20:56;;;;;;;12.10;9.20;;;8.40;99.90;;;;;;6281413;22;20666;-49
2021/12/15 03:23:49;;;;;;;9.48;8.40;;;8.40;99.90;;;;;;6271873;22;20258;-49
2021/12/15 03:26:19;;;;;;;12.85;9.20;;;8.30;99.90;;;;;;6282725;22;20476;-50
2021/12/15 03:39:40;;;;;;;9.50;6.90;;;8.60;99.90;;;;;;6282716;22;20176;-50
2021/12/15 03:42:08;;;;;;;7.20;5.00;;;8.20;99.90;;;;;;6272693;22;20208;-50
2021/12/15 03:44:37;;;;;;;7.03;5.40;;;8.50;99.90;;;;;;6272889;22;20176;-49
2021/12/15 03:47:09;;;;;;;6.18;5.05;;;8.20;99.90;;;;;;6282135;22;20155;-50
2021/12/15 03:49:36;;;;;;;5.57;4.40;;;8.30;99.90;;;;;;6271792;22;20618;-49
2021/12/15 03:52:03;;;;;;;6.18;5.57;;;8.60;99.90;;;;;;6271518;22;20179;-50
2021/12/15 03:54:29;;;;;;;4.97;4.40;;;8.40;99.90;;;;;;6283445;22;20168;-51
2021/12/15 03:56:55;;;;;;;4.43;4.03;;;8.30;99.90;;;;;;6282562;22;20183;-50
2021/12/15 03:59:23;;;;;;;4.70;4.10;;;8.00;99.90;;;;;;6272159;22;20402;-49
2021/12/15 04:01:49;;;;;;;6.20;5.60;;;8.10;99.90;;;;;;6271502;22;20370;-50
2021/12/15 04:04:15;;;;;;;5.03;4.53;;;8.20;99.90;;;;;;6270105;22;20561;-49
2021/12/15 04:06:41;;;;;;;5.10;4.60;;;8.40;99.90;;;;;;6281946;22;20496;-49
2021/12/15 04:09:10;;;;;;;5.50;5.00;;;7.60;99.90;;;;;;6281991;22;20156;-50
2021/12/15 04:11:36;;;;;;;5.85;5.20;;;8.30;99.90;;;;;;6271932;22;20160;-49
2021/12/15 04:14:10;;;;;;;4.80;4.30;;;8.40;99.90;;;;;;6272764;22;20805;-49
2021/12/15 04:19:08;;;;;;;5.00;4.50;;;8.30;99.90;;;;;;6281641;22;20187;-49
2021/12/15 04:21:36;;;;;;;5.75;5.07;;;8.20;99.90;;;;;;6282012;22;20140;-50
2021/12/15 04:24:02;;;;;;;6.40;5.00;;;8.20;99.90;;;;;;6283082;22;20168;-49
2021/12/15 04:26:28;;;;;;;5.45;4.93;;;8.50;99.90;;;;;;6282453;22;20289;-50
2021/12/15 04:28:54;;;;;;;6.40;4.95;;;8.40;99.90;;;;;;6272533;22;20286;-49
2021/12/15 04:31:24;;;;;;;7.40;4.75;;;8.40;99.90;;;;;;6282898;22;20152;-49
2021/12/15 04:33:54;;;;;;;6.70;5.22;;;8.50;99.90;;;;;;6272346;22;20565;-49
2021/12/15 04:36:25;;;;;;;6.50;5.00;;;8.50;99.90;;;;;;6274935;22;20230;-49
2021/12/15 04:38:51;;;;;;;6.40;5.50;;;8.40;99.90;;;;;;6273949;22;20180;-49
2021/12/15 04:41:19;;;;;;;5.63;4.82;;;8.40;99.90;;;;;;6274155;22;20203;-49
2021/12/15 04:43:55;;;;;;;5.35;4.45;;;8.40;99.90;;;;;;6272819;22;20176;-51
2021/12/15 04:46:27;;;;;;;6.47;5.20;;;8.20;99.90;;;;;;6283947;22;20583;-51
2021/12/15 04:48:53;;;;;;;5.18;4.68;;;8.10;99.90;;;;;;6283989;22;20144;-51
2021/12/15 04:51:20;;;;;;;5.80;4.85;;;8.20;99.90;;;;;;6274261;22;20172;-51
2021/12/15 04:53:47;;;;;;;6.63;5.15;;;8.00;99.90;;;;;;6284459;22;20172;-51
2021/12/15 04:56:13;;;;;;;9.98;6.93;;;8.50;99.90;;;;;;6284276;22;20153;-50
2021/12/15 04:58:39;;;;;;;7.03;6.03;;;8.40;99.90;;;;;;6273877;22;20184;-50
2021/12/15 05:01:09;;;;;;;6.60;5.70;;;8.20;99.90;;;;;;6273397;22;20388;-51
2021/12/15 05:03:35;;;;;;;4.63;4.18;;;8.30;99.90;;;;;;6283238;22;20171;-51
2021/12/15 05:06:01;;;;;;;6.15;5.28;;;8.40;99.90;;;;;;6273368;22;20278;-49
2021/12/15 05:08:27;;;;;;;7.05;6.35;;;8.40;99.90;;;;;;6284008;22;20148;-51
2021/12/15 05:10:55;;;;;;;6.93;5.23;;;8.30;99.90;;;;;;6284700;22;20162;-50
2021/12/15 05:13:21;;;;;;;4.78;4.28;;;8.20;99.90;;;;;;6274441;22;20450;-52
2021/12/15 05:15:47;;;;;;;4.30;3.90;;;8.50;99.90;;;;;;6283305;22;20199;-51
2021/12/15 05:18:14;;;;;;;4.60;4.20;;;8.50;99.90;;;;;;6284314;22;20156;-52
2021/12/15 05:20:45;;;;;;;5.35;4.85;;;8.50;99.90;;;;;;6283988;22;20153;-50
2021/12/15 05:23:13;;;;;;;5.38;4.85;;;8.60;99.90;;;;;;6284195;22;20685;-50
2021/12/15 05:25:39;;;;;;;5.88;5.28;;;8.30;99.90;;;;;;6273626;22;20152;-51
2021/12/15 05:28:05;;;;;;;6.80;6.10;;;8.30;99.90;;;;;;6284570;22;20166;-51
2021/12/15 05:30:31;;;;;;;7.75;6.40;;;8.40;99.90;;;;;;6281343;22;20490;-50
2021/12/15 05:32:57;;;;;;;7.80;6.70;;;8.20;99.90;;;;;;6284192;22;20250;-51
2021/12/15 05:35:24;;;;;;;7.50;6.70;;;8.40;99.90;;;;;;6273397;22;20358;-48
2021/12/15 05:37:54;;;;;;;8.57;7.63;;;8.50;99.90;;;;;;6272976;22;20386;-51
2021/12/15 05:40:20;;;;;;;5.65;5.05;;;8.40;99.90;;;;;;6283444;22;20184;-51
2021/12/15 05:42:46;;;;;;;5.22;4.72;;;8.30;99.90;;;;;;6283618;22;20472;-50
2021/12/15 05:45:12;;;;;;;5.63;5.13;;;8.40;99.90;;;;;;6284323;22;20149;-51
2021/12/15 05:47:39;;;;;;;4.50;4.10;;;8.30;99.90;;;;;;6282520;22;20156;-50
2021/12/15 05:50:08;;;;;;;8.55;7.75;;;8.30;99.90;;;;;;6273390;22;20394;-50
2021/12/15 05:52:34;;;;;;;9.55;7.40;;;8.20;99.90;;;;;;6242741;22;20236;-50
2021/12/15 05:55:00;;;;;;;7.53;6.72;;;8.30;99.90;;;;;;6252875;23;20190;-50
2021/12/15 05:57:27;;;;;;;9.95;7.97;;;8.50;99.90;;;;;;6251081;23;20615;-50
2021/12/15 05:59:53;;;;;;;8.15;7.07;;;7.90;99.90;;;;;;6253412;23;20187;-50
2021/12/15 06:02:18;;;;;;;9.05;8.15;;;8.50;99.90;;;;;;6242391;23;20240;-51
2021/12/15 06:04:44;;;;;;;8.23;7.20;;;8.40;99.90;;;;;;6251879;22;20176;-49
2021/12/15 06:07:10;;;;;;;9.20;7.50;;;8.30;99.90;;;;;;6242250;23;20597;-50
2021/12/15 06:09:36;;;;;;;9.77;8.43;;;8.70;99.90;;;;;;6252650;23;20157;-50
2021/12/15 06:12:03;;;;;;;11.47;8.67;;;8.60;99.90;;;;;;6252896;23;20355;-51
2021/12/15 06:14:30;;;;;;;10.00;8.27;;;8.40;99.90;;;;;;6253082;22;20168;-50
2021/12/15 06:17:03;;;;;;;11.20;8.88;;;8.20;99.90;;;;;;6249319;23;20157;-50
2021/12/15 06:19:29;;;;;;;8.43;7.43;;;8.50;99.90;;;;;;6252213;23;20176;-51
2021/12/15 06:21:55;;;;;;;10.25;8.85;;;8.50;99.90;;;;;;6253099;23;20149;-51
2021/12/15 06:24:21;;;;;;;7.45;6.72;;;8.60;99.90;;;;;;6252591;22;20189;-52
2021/12/15 06:26:47;;;;;;;9.40;8.40;;;8.30;99.90;;;;;;6250721;23;20153;-52
2021/12/15 06:29:12;;;;;;;7.03;6.37;;;8.40;99.90;;;;;;6251893;23;20402;-52
2021/12/15 06:31:39;;;;;;;9.40;8.47;;;8.20;99.90;;;;;;6252307;23;20358;-51
2021/12/15 06:34:05;;;;;;;6.32;5.72;;;8.40;99.90;;;;;;6240985;22;20180;-51
2021/12/15 06:36:33;;;;;;;8.57;7.28;;;8.20;99.90;;;;;;6250995;23;20230;-51
2021/12/15 06:39:00;;;;;;;7.20;6.30;;;8.60;99.90;;;;;;6248908;23;20215;-56
2021/12/15 06:41:25;;;;;;;6.55;5.95;;;8.30;99.90;;;;;;6250219;23;20156;-55
2021/12/15 06:43:55;;;;;;;8.30;7.50;;;8.60;99.90;;;;;;6241311;22;20177;-51
2021/12/15 06:59:48;;;;;;;10.95;9.10;;;8.40;99.90;;;;;;6282764;22;20298;-50
2021/12/15 07:02:15;;;;;;;9.83;8.37;;;8.40;99.90;;;;;;6272978;22;20180;-51
2021/12/15 07:04:40;;;;;;;11.82;9.30;;;8.10;99.90;;;;;;6272164;22;20181;-50
2021/12/15 07:07:06;;;;;;;9.00;8.10;;;8.40;99.90;;;;;;6282269;22;20144;-51
2021/12/15 07:09:33;;;;;;;11.30;9.53;;;8.60;99.90;;;;;;6283609;22;20223;-52
2021/12/15 07:12:00;;;;;;;8.43;7.63;;;8.60;99.90;;;;;;6282578;22;20152;-52
2021/12/15 07:14:26;;;;;;;8.70;7.75;;;8.50;99.90;;;;;;6270478;22;20173;-51
2021/12/15 07:16:55;;;;;;;9.20;8.20;;;8.50;99.90;;;;;;6280734;22;20164;-52
2021/12/15 07:24:38;;;;;;;9.20;8.23;;;8.50;99.90;;;;;;6258194;22;20425;-51
2021/12/15 07:27:06;;;;;;;10.23;9.17;;;8.40;99.90;;;;;;6271849;22;20157;-51
2021/12/15 07:29:34;;;;;;;12.20;10.02;;;8.40;99.90;;;;;;6282006;22;20383;-50
2021/12/15 07:32:02;;;;;;;12.40;10.10;;;8.40;99.90;;;;;;6284302;22;20156;-50
2021/12/15 07:34:28;;;;;;;13.60;10.65;;;8.40;99.90;;;;;;6284479;22;20255;-50
2021/12/15 07:36:53;;;;;;;11.13;10.00;;;8.20;99.90;;;;;;6274186;22;20550;-51
2021/12/15 07:39:20;;;;;;;12.50;10.87;;;8.20;99.90;;;;;;6274575;22;20184;-51
2021/12/15 07:42:02;;;;;;;13.27;10.63;;;7.70;99.90;;;;;;6272665;22;20458;-51
2021/12/15 07:44:27;;;;;;;11.35;10.02;;;8.00;99.90;;;;;;6284932;22;20160;-51
2021/12/15 07:46:54;;;;;;;12.13;9.90;;;8.10;99.90;;;;;;6273095;22;20160;-50
2021/12/15 07:49:22;;;;;;;11.30;9.65;;;8.00;99.90;;;;;;6272158;22;20507;-50
2021/12/15 07:51:50;;;;;;;13.38;11.30;;;8.30;99.90;;;;;;6282715;22;20244;-51
2021/12/15 07:54:16;;;;;;;14.90;10.55;;;8.30;99.90;;;;;;6271332;22;20230;-51
2021/12/15 07:56:42;;;;;;;12.50;9.67;;;8.10;99.90;;;;;;6282486;22;20149;-51
2021/12/15 07:59:08;;;;;;;12.73;9.90;;;8.40;99.90;;;;;;6272815;22;20829;-50
2021/12/15 08:01:34;;;;;;;13.07;11.07;;;8.10;99.90;;;;;;6283172;22;20215;-50
2021/12/15 08:04:00;;;;;;;11.80;8.90;;;8.80;99.90;;;;;;6274115;22;20250;-52
2021/12/15 08:06:27;;;;;;;11.77;9.20;;;8.30;99.90;;;;;;6285069;22;20177;-52
2021/12/15 08:08:54;;;;;;;12.02;9.13;;;8.50;99.90;;;;;;6284996;22;20215;-52
2021/12/15 08:11:20;;;;;;;11.25;9.00;;;8.40;99.90;;;;;;6284140;22;20620;-49
2021/12/15 08:13:45;;;;;;;11.00;9.10;;;8.20;99.90;;;;;;6274748;22;20187;-51
2021/12/15 08:16:13;;;;;;;11.30;8.80;;;8.50;99.90;;;;;;6272076;22;20784;-50
2021/12/15 08:18:40;;;;;;;11.18;8.30;;;8.10;99.90;;;;;;6285456;22;20274;-51
2021/12/15 08:21:06;;;;;;;9.35;7.90;;;8.20;99.90;;;;;;6274001;22;20163;-52
2021/12/15 08:23:32;;;;;;;9.52;8.52;;;8.20;99.90;;;;;;6273492;22;20204;-51
2021/12/15 08:25:58;;;;;;;8.33;7.53;;;8.30;99.90;;;;;;6283652;22;20155;-51
2021/12/15 08:28:24;;;;;;;8.20;7.30;;;8.10;99.90;;;;;;6284059;22;20210;-50
2021/12/15 08:30:50;;;;;;;9.67;7.57;;;8.40;99.90;;;;;;6273906;22;20426;-50
2021/12/15 08:33:19;;;;;;;9.13;8.18;;;7.90;99.90;;;;;;6283454;22;20173;-52
2021/12/15 08:35:56;;;;;;;10.38;6.95;;;8.50;99.90;;;;;;6271509;22;20630;-52
2021/12/15 08:38:23;;;;;;;8.82;6.90;;;8.40;99.90;;;;;;6274218;22;20183;-51
2021/12/15 08:40:51;;;;;;;9.18;7.70;;;8.30;99.90;;;;;;6273716;22;20156;-50
2021/12/15 08:43:18;;;;;;;7.88;6.80;;;8.20;99.90;;;;;;6273887;22;20195;-51
2021/12/15 08:46:01;;;;;;;8.32;7.43;;;8.10;99.90;;;;;;6283778;22;20157;-52
2021/12/15 08:48:27;;;;;;;6.90;5.88;;;8.20;99.90;;;;;;6273920;22;20152;-51
2021/12/15 08:50:54;;;;;;;7.45;6.40;;;8.50;99.90;;;;;;6283713;22;20202;-51
2021/12/15 08:53:20;;;;;;;7.70;6.93;;;8.00;99.90;;;;;;6283600;22;20168;-51
2021/12/15 08:55:48;;;;;;;8.25;6.45;;;8.10;99.90;;;;;;6283611;22;20156;-52
2021/12/15 08:58:16;;;;;;;7.70;6.50;;;8.40;99.90;;;;;;6274614;22;20208;-53
2021/12/15 09:00:44;;;;;;;7.43;6.40;;;8.40;99.90;;;;;;6284414;22;20187;-50
2021/12/15 09:03:11;;;;;;;8.55;5.50;;;8.50;99.90;;;;;;6284751;22;20164;-52
2021/12/15 09:05:38;;;;;;;7.30;5.85;;;8.40;99.90;;;;;;6284079;22;20149;-50
2021/12/15 09:08:05;;;;;;;7.15;6.45;;;8.70;99.90;;;;;;6273824;22;20157;-50
2021/12/15 09:10:34;;;;;;;6.70;6.00;;;8.60;99.90;;;;;;6272485;22;20149;-50
2021/12/15 09:13:00;;;;;;;7.18;6.35;;;8.70;99.90;;;;;;6282684;22;20203;-54
2021/12/15 09:15:27;;;;;;;6.88;4.85;;;8.50;99.90;;;;;;6282050;22;20222;-49
2021/12/15 09:17:53;;;;;;;6.28;5.60;;;8.30;99.90;;;;;;6282160;22;20149;-52
2021/12/15 09:20:23;;;;;;;9.55;5.95;;;8.40;99.90;;;;;;6272599;22;20193;-52
2021/12/15 09:22:49;;;;;;;7.10;5.40;;;8.20;99.90;;;;;;6284288;22;20167;-51
2021/12/15 09:25:15;;;;;;;5.47;4.90;;;8.50;99.90;;;;;;6272166;22;20576;-52
2021/12/15 09:27:42;;;;;;;7.95;6.22;;;8.70;99.90;;;;;;6283606;22;20180;-52
2021/12/15 09:30:12;;;;;;;7.55;5.57;;;8.20;99.90;;;;;;6275706;22;20171;-52
2021/12/15 09:32:39;;;;;;;11.88;5.90;;;8.50;99.90;;;;;;6275526;22;20600;-52
2021/12/15 09:35:06;;;;;;;6.13;5.35;;;8.20;99.90;;;;;;6275548;22;20239;-49
2021/12/15 09:37:32;;;;;;;6.38;5.15;;;8.40;99.90;;;;;;6275815;22;20592;-52
2021/12/15 09:39:58;;;;;;;6.40;5.63;;;8.50;99.90;;;;;;6275582;22;20180;-52
2021/12/15 09:42:31;;;;;;;7.38;5.38;;;8.40;99.90;;;;;;6275874;22;20153;-50
2021/12/15 09:45:05;;;;;;;9.32;8.27;;;8.30;99.90;;;;;;6275609;22;20145;-50
2021/12/15 09:47:50;;;;;;;8.15;6.63;;;8.30;99.90;;;;;;6285667;22;20208;-49
2021/12/15 10:07:17;;;;;;;7.28;5.80;;;8.40;99.90;;;;;;6283773;22;20168;-51
2021/12/15 10:18:08;;;;;;;6.22;5.10;;;8.60;99.90;;;;;;6283264;22;20541;-51
2021/12/15 10:20:39;;;;;;;7.25;5.88;;;8.60;99.90;;;;;;6282070;22;20144;-51
2021/12/15 10:23:12;;;;;;;8.85;6.40;;;8.30;99.90;;;;;;6283743;22;20615;-51
2021/12/15 10:25:49;;;;;;;5.82;5.22;;;8.40;99.90;;;;;;6282946;22;20141;-50
2021/12/15 10:28:22;;;;;;;6.28;5.68;;;8.40;99.90;;;;;;6271868;22;20156;-51
2021/12/15 10:30:54;;;;;;;6.63;5.25;;;8.30;99.90;;;;;;6273724;22;20144;-50
2021/12/15 10:33:27;;;;;;;7.60;6.07;;;8.50;99.90;;;;;;6271505;22;20630;-50
2021/12/15 10:35:57;;;;;;;7.13;6.05;;;8.60;99.90;;;;;;6271928;22;20160;-51
2021/12/15 10:38:27;;;;;;;8.23;6.88;;;8.40;99.90;;;;;;6282600;22;20156;-51
2021/12/15 10:41:14;;;;;;;7.53;6.72;;;8.40;99.90;;;;;;6280622;22;20144;-51
2021/12/15 10:43:54;;;;;;;9.15;6.22;;;8.20;99.90;;;;;;6270260;22;20173;-51
2021/12/15 10:46:25;;;;;;;7.47;6.15;;;8.30;99.90;;;;;;6271675;22;20646;-53
2021/12/15 10:49:22;;;;;;;6.50;5.80;;;8.30;99.90;;;;;;6272915;22;20174;-53
2021/12/15 10:51:57;;;;;;;7.72;5.93;;;8.20;99.90;;;;;;6256253;22;20172;-51
2021/12/15 10:54:27;;;;;;;7.00;6.18;;;8.10;99.90;;;;;;6270267;22;20473;-52
2021/12/15 10:56:56;;;;;;;7.50;6.32;;;8.20;99.90;;;;;;6279996;22;20238;-52
2021/12/15 10:59:24;;;;;;;8.75;6.57;;;8.20;99.90;;;;;;6281650;22;20173;-52
2021/12/15 11:02:14;;;;;;;8.35;6.45;;;8.30;99.90;;;;;;6281074;22;20155;-52
2021/12/15 11:04:48;;;;;;;6.47;5.65;;;8.20;99.90;;;;;;6281327;22;20249;-52
2021/12/15 11:07:17;;;;;;;6.72;6.03;;;8.10;99.90;;;;;;6270902;22;20182;-51
2021/12/15 11:09:47;;;;;;;6.45;5.80;;;8.20;99.90;;;;;;6282109;22;20471;-52
2021/12/15 11:12:26;;;;;;;6.70;5.35;;;8.50;99.90;;;;;;6281947;22;20164;-52
2021/12/15 11:14:55;;;;;;;5.97;5.38;;;8.40;99.90;;;;;;6271544;22;20176;-52
2021/12/15 11:17:28;;;;;;;10.60;6.00;;;8.30;99.90;;;;;;6281751;22;20600;-51
2021/12/15 11:19:56;;;;;;;7.00;6.15;;;8.30;99.90;;;;;;6281304;22;20176;-52
2021/12/15 11:22:33;;;;;;;8.50;7.65;;;8.20;99.90;;;;;;6282221;22;20141;-52
2021/12/15 11:25:11;;;;;;;7.35;6.60;;;8.30;99.90;;;;;;6273193;22;20494;-51
2021/12/15 11:27:38;;;;;;;6.07;5.57;;;8.20;99.90;;;;;;6281310;22;20143;-52
2021/12/15 11:30:09;;;;;;;6.00;5.40;;;8.30;99.90;;;;;;6280832;22;20152;-52
2021/12/15 11:32:50;;;;;;;6.43;5.82;;;8.10;99.90;;;;;;6283202;22;20141;-52
2021/12/15 11:35:30;;;;;;;6.65;5.53;;;8.60;99.90;;;;;;6282467;22;20172;-52
2021/12/15 11:38:07;;;;;;;8.55;6.72;;;8.20;99.90;;;;;;6282989;22;20152;-51
2021/12/15 11:40:34;;;;;;;7.60;6.80;;;8.50;99.90;;;;;;6282802;22;20222;-52
2021/12/15 11:43:02;;;;;;;6.47;5.65;;;8.50;99.90;;;;;;6282292;22;20501;-54
2021/12/15 11:45:28;;;;;;;6.60;6.00;;;8.30;99.90;;;;;;6282382;22;20233;-52
2021/12/15 11:48:36;;;;;;;5.50;4.95;;;8.30;99.90;;;;;;6282460;22;20549;-52
2021/12/15 11:51:05;;;;;;;11.90;6.65;;;8.50;99.90;;;;;;6266160;22;20172;-50
2021/12/15 11:53:39;;;;;;;8.50;7.15;;;7.90;99.90;;;;;;6271656;22;20272;-50
2021/12/15 11:56:18;;;;;;;7.40;5.85;;;8.50;99.90;;;;;;6282722;22;20148;-50
2021/12/15 11:58:45;;;;;;;6.97;5.95;;;8.20;99.90;;;;;;6280665;22;20199;-49
2021/12/15 12:01:44;;;;;;;6.97;6.28;;;8.30;99.90;;;;;;6282156;22;20198;-49
2021/12/15 12:04:16;;;;;;;7.68;6.35;;;8.30;99.90;;;;;;6281992;22;20168;-49
2021/12/15 12:06:45;;;;;;;7.82;6.97;;;8.60;99.90;;;;;;6271653;22;20208;-50
2021/12/15 12:09:11;;;;;;;6.65;5.93;;;8.40;99.90;;;;;;6282398;22;20206;-50
2021/12/15 12:11:41;;;;;;;6.60;6.00;;;8.00;99.90;;;;;;6281612;22;20160;-50
2021/12/15 12:14:17;;;;;;;8.05;7.28;;;8.50;99.90;;;;;;6281851;22;20706;-50
2021/12/15 12:16:45;;;;;;;8.73;7.85;;;8.50;99.90;;;;;;6281510;22;20226;-51
2021/12/15 12:19:13;;;;;;;8.50;7.70;;;8.60;99.90;;;;;;6271638;22;20715;-50
2021/12/15 12:21:40;;;;;;;8.27;6.85;;;8.60;99.90;;;;;;6271942;22;20549;-50
2021/12/15 12:24:06;;;;;;;8.40;7.05;;;8.30;99.90;;;;;;6282354;22;20172;-50
2021/12/15 12:26:34;;;;;;;7.38;5.78;;;8.30;99.90;;;;;;6282180;22;20149;-50
2021/12/15 12:29:01;;;;;;;7.03;6.32;;;8.50;99.90;;;;;;6281579;22;20596;-48
2021/12/15 12:31:28;;;;;;;7.35;6.65;;;8.50;99.90;;;;;;6271720;22;20175;-49
2021/12/15 12:33:54;;;;;;;7.28;6.57;;;8.30;99.90;;;;;;6273311;22;20208;-50
2021/12/15 12:36:32;;;;;;;7.80;6.80;;;8.60;99.90;;;;;;6273986;22;20163;-51
2021/12/15 12:39:05;;;;;;;9.13;8.05;;;8.50;99.90;;;;;;6283322;22;20168;-51
2021/12/15 12:41:42;;;;;;;8.23;7.03;;;8.60;99.90;;;;;;6283495;22;20158;-51
2021/12/15 12:44:11;;;;;;;7.28;6.57;;;8.40;99.90;;;;;;6273496;22;20657;-49
2021/12/15 12:46:45;;;;;;;7.60;6.90;;;8.20;99.90;;;;;;6272859;22;20152;-51
2021/12/15 13:00:42;;;;;;;7.22;6.47;;;8.00;99.90;;;;;;6273393;22;20183;-51
2021/12/15 13:03:13;;;;;;;7.43;6.72;;;8.30;99.90;;;;;;6283935;22;20175;-51
2021/12/15 13:06:08;;;;;;;7.05;6.35;;;8.30;99.90;;;;;;6273341;22;20167;-50
2021/12/15 13:08:34;;;;;;;6.38;5.82;;;8.30;99.90;;;;;;6257420;22;20156;-51
2021/12/15 13:11:23;;;;;;;6.43;5.82;;;8.00;99.90;;;;;;6284443;22;20160;-51
2021/12/15 13:14:03;;;;;;;7.13;6.53;;;8.20;99.90;;;;;;6283436;22;20222;-50
2021/12/15 13:16:43;;;;;;;8.00;7.30;;;8.20;99.90;;;;;;6273164;22;20156;-49
2021/12/15 13:19:23;;;;;;;7.38;6.78;;;8.20;99.90;;;;;;6273155;22;20176;-51
2021/12/15 13:22:43;;;;;;;8.07;7.28;;;8.30;99.90;;;;;;6273664;22;20595;-51
2021/12/15 13:30:40;;;;;;;7.57;6.78;;;8.20;99.90;;;;;;6283722;22;20201;-49
2021/12/15 13:33:13;;;;;;;6.85;6.25;;;8.30;99.90;;;;;;6282182;22;20505;-49
2021/12/15 13:35:46;;;;;;;6.65;6.05;;;8.30;99.90;;;;;;6282989;22;20133;-50
2021/12/15 13:38:17;;;;;;;8.57;7.10;;;7.60;99.90;;;;;;6273732;22;20210;-49
2021/12/15 13:41:10;;;;;;;10.43;9.40;;;8.30;99.90;;;;;;6273971;22;20160;-49
2021/12/15 13:43:39;;;;;;;7.55;6.30;;;8.00;99.90;;;;;;6272271;22;20187;-49
2021/12/15 13:46:22;;;;;;;7.90;6.25;;;8.30;99.90;;;;;;6282369;22;20149;-49
2021/12/15 13:49:00;;;;;;;6.57;5.97;;;8.00;99.90;;;;;;6272261;22;20469;-49
2021/12/15 13:52:15;;;;;;;9.93;6.38;;;8.00;99.90;;;;;;6282914;22;20178;-49
2021/12/15 13:54:41;;;;;;;6.55;6.00;;;8.10;99.90;;;;;;6228983;22;20176;-50
2021/12/15 13:57:12;;;;;;;6.90;6.30;;;7.90;99.90;;;;;;6272724;22;20163;-52
2021/12/15 13:59:52;;;;;;;6.55;5.95;;;8.10;99.90;;;;;;6272909;22;20267;-51
2021/12/15 14:02:56;;;;;;;7.68;6.95;;;8.10;99.90;;;;;;6286207;22;20160;-50
2021/12/15 14:05:34;;;;;;;8.02;6.88;;;8.00;99.90;;;;;;6249430;22;20183;-51
2021/12/15 14:08:10;;;;;;;6.53;5.93;;;8.20;99.90;;;;;;6275290;22;20155;-50
2021/12/15 14:10:35;;;;;;;6.55;5.93;;;8.00;99.90;;;;;;6274550;22;20522;-51
2021/12/15 14:13:04;;;;;;;6.37;5.77;;;8.20;99.90;;;;;;6285647;22;20168;-51
2021/12/15 14:15:36;;;;;;;7.18;6.57;;;8.30;99.90;;;;;;6285106;22;20156;-52
2021/12/15 14:18:26;;;;;;;6.53;5.93;;;8.30;99.90;;;;;;6285758;22;20155;-51
2021/12/15 14:21:06;;;;;;;6.85;6.25;;;7.80;99.90;;;;;;6285127;22;20251;-51
2021/12/15 14:23:40;;;;;;;7.13;6.53;;;8.00;99.90;;;;;;6286282;22;20168;-52
2021/12/15 14:26:13;;;;;;;7.95;6.38;;;8.00;99.90;;;;;;6274305;22;20168;-52
2021/12/15 14:28:48;;;;;;;5.93;5.30;;;7.80;99.90;;;;;;6285166;22;20140;-51
2021/12/15 14:31:20;;;;;;;7.50;6.05;;;7.80;99.90;;;;;;6283783;22;20311;-51
2021/12/15 14:33:49;;;;;;;7.47;6.78;;;7.70;99.90;;;;;;6274119;22;20180;-52
2021/12/15 14:36:30;;;;;;;7.03;6.40;;;8.00;99.90;;;;;;6285032;22;20208;-51
2021/12/15 14:39:11;;;;;;;6.90;6.20;;;7.90;99.90;;;;;;6274094;22;20191;-51
2021/12/15 14:41:43;;;;;;;7.00;6.40;;;8.00;99.90;;;;;;6274140;22;20152;-51
2021/12/15 14:44:15;;;;;;;6.50;5.90;;;7.90;99.90;;;;;;6274120;22;20550;-52
2021/12/15 14:46:54;;;;;;;7.15;6.45;;;8.00;99.90;;;;;;6284586;22;20140;-52
2021/12/15 14:49:23;;;;;;;7.30;6.70;;;7.80;99.90;;;;;;6274079;22;20612;-52
2021/12/15 14:51:51;;;;;;;8.05;7.25;;;8.20;99.90;;;;;;6274723;22;20206;-52